Time;durP1;ratioP1;P1;durP2;ratioP2;P2;SDS_P1;SDS_P2;PMS_P1;PMS_P2;Temp;Humidity;BMP_temperature;BMP_pressure;BME280_temperature;BME280_humidity;BME280_pressure;Samples;Min_cycle;Max_cycle;Signal;HPM_P1;HPM_P2
2021/10/07 00:00:34;;;;;;;5.22;3.50;;;;;;;;;;5073594;28;20029;-78
2021/10/07 00:02:59;;;;;;;5.15;4.65;;;;;;;;;;5073400;28;20044;-76
2021/10/07 00:05:25;;;;;;;3.95;2.95;;;;;;;;;;5073402;28;20086;-75
2021/10/07 00:07:50;;;;;;;5.57;3.22;;;;;;;;;;5055674;28;20055;-77
2021/10/07 00:10:16;;;;;;;2.53;2.25;;;;;;;;;;5073331;28;20078;-77
2021/10/07 00:12:41;;;;;;;9.10;3.55;;;;;;;;;;5073034;28;20086;-77
2021/10/07 00:15:08;;;;;;;9.45;4.18;;;;;;;;;;5073336;28;20118;-77
2021/10/07 00:17:34;;;;;;;5.65;3.45;;;;;;;;;;5073284;28;20044;-76
2021/10/07 00:19:59;;;;;;;4.13;2.90;;;;;;;;;;5073184;28;20089;-76
2021/10/07 00:22:25;;;;;;;4.28;3.28;;;;;;;;;;5054880;28;20053;-75
2021/10/07 00:24:50;;;;;;;5.53;3.40;;;;;;;;;;5073238;28;20029;-76
2021/10/07 00:27:16;;;;;;;5.32;3.10;;;;;;;;;;5073015;28;20036;-78
2021/10/07 00:32:33;;;;;;;4.63;3.25;;;;;;;;;;5072909;28;20441;-76
2021/10/07 00:40:06;;;;;;;4.68;2.92;;;;;;;;;;5072415;28;20029;-75
2021/10/07 00:42:32;;;;;;;5.03;3.40;;;;;;;;;;5072419;28;20570;-76
2021/10/07 00:44:57;;;;;;;4.25;3.15;;;;;;;;;;5072531;28;20075;-76
2021/10/07 00:47:23;;;;;;;3.53;2.88;;;;;;;;;;5072777;28;20036;-79
2021/10/07 00:49:49;;;;;;;2.95;2.50;;;;;;;;;;5054768;28;20085;-77
2021/10/07 00:52:17;;;;;;;4.53;4.00;;;;;;;;;;5072346;28;20110;-77
2021/10/07 00:54:45;;;;;;;4.80;2.75;;;;;;;;;;5072753;28;20157;-77
2021/10/07 00:57:16;;;;;;;3.55;2.67;;;;;;;;;;5072302;28;20032;-76
2021/10/07 00:59:42;;;;;;;6.43;3.35;;;;;;;;;;5054357;28;20066;-76
2021/10/07 01:02:08;;;;;;;4.43;3.58;;;;;;;;;;5054178;28;20033;-77
2021/10/07 01:04:35;;;;;;;3.35;3.00;;;;;;;;;;5072348;28;20489;-76
2021/10/07 01:07:02;;;;;;;5.75;3.53;;;;;;;;;;5072214;28;20520;-77
2021/10/07 01:09:31;;;;;;;4.53;3.00;;;;;;;;;;5072180;28;20047;-78
2021/10/07 01:11:58;;;;;;;6.97;3.53;;;;;;;;;;5072026;28;20085;-77
2021/10/07 01:14:33;;;;;;;5.25;3.85;;;;;;;;;;5072116;28;20043;-77
2021/10/07 01:17:00;;;;;;;4.18;3.10;;;;;;;;;;5072127;28;20040;-77
2021/10/07 01:19:27;;;;;;;4.20;2.95;;;;;;;;;;5054612;28;20032;-77
2021/10/07 01:21:53;;;;;;;3.60;2.90;;;;;;;;;;5073542;28;20061;-76
2021/10/07 01:24:18;;;;;;;5.63;4.93;;;;;;;;;;5071738;28;20032;-77
2021/10/07 01:26:44;;;;;;;3.67;2.97;;;;;;;;;;5072019;28;20036;-75
2021/10/07 01:29:10;;;;;;;3.08;2.67;;;;;;;;;;5054954;28;20033;-76
2021/10/07 01:31:35;;;;;;;3.67;3.22;;;;;;;;;;5078868;28;20041;-77
2021/10/07 01:34:00;;;;;;;6.22;3.92;;;;;;;;;;5090099;28;20025;-75
2021/10/07 01:36:26;;;;;;;4.22;3.45;;;;;;;;;;5089180;28;20047;-73
2021/10/07 01:38:51;;;;;;;5.07;4.20;;;;;;;;;;5084349;28;20082;-76
2021/10/07 01:41:16;;;;;;;4.10;3.15;;;;;;;;;;5072555;28;20119;-76
2021/10/07 01:43:42;;;;;;;5.05;4.63;;;;;;;;;;5072372;28;20034;-76
2021/10/07 01:46:07;;;;;;;5.32;3.53;;;;;;;;;;5072572;28;20029;-76
2021/10/07 01:48:33;;;;;;;3.75;2.70;;;;;;;;;;5072137;28;20077;-77
2021/10/07 01:50:58;;;;;;;3.25;2.90;;;;;;;;;;5072067;28;20504;-76
2021/10/07 01:53:24;;;;;;;7.47;3.58;;;;;;;;;;5079588;22;20513;-77
2021/10/07 01:55:51;;;;;;;5.85;3.38;;;;;;;;;;5071558;28;20532;-77
2021/10/07 01:58:17;;;;;;;4.47;3.10;;;;;;;;;;5071247;28;20036;-77
2021/10/07 02:00:42;;;;;;;3.78;3.20;;;;;;;;;;5071318;28;20028;-78
2021/10/07 02:03:07;;;;;;;6.07;4.55;;;;;;;;;;5071202;28;20033;-76
2021/10/07 02:05:33;;;;;;;3.72;3.22;;;;;;;;;;5071134;28;20397;-77
2021/10/07 02:07:58;;;;;;;3.88;2.88;;;;;;;;;;5071137;28;20093;-77
2021/10/07 02:10:24;;;;;;;4.47;3.33;;;;;;;;;;5071118;28;20040;-77
2021/10/07 02:12:49;;;;;;;4.55;3.53;;;;;;;;;;5071358;28;20225;-77
2021/10/07 02:15:16;;;;;;;4.68;3.35;;;;;;;;;;5071240;28;20111;-77
2021/10/07 02:17:41;;;;;;;4.22;3.85;;;;;;;;;;5036471;28;20139;-77
2021/10/07 02:20:09;;;;;;;5.10;3.47;;;;;;;;;;5053086;28;20115;-77
2021/10/07 02:22:35;;;;;;;4.07;3.70;;;;;;;;;;5071025;28;20041;-77
2021/10/07 02:25:01;;;;;;;5.70;3.25;;;;;;;;;;5071037;28;20119;-77
2021/10/07 02:27:26;;;;;;;6.70;3.42;;;;;;;;;;5070948;28;20040;-77
2021/10/07 02:29:52;;;;;;;6.70;6.00;;;;;;;;;;5071135;28;20094;-77
2021/10/07 02:32:17;;;;;;;4.45;3.20;;;;;;;;;;5070760;28;20037;-77
2021/10/07 02:34:42;;;;;;;4.82;4.10;;;;;;;;;;5070985;28;20032;-77
2021/10/07 02:37:10;;;;;;;5.63;4.20;;;;;;;;;;5070784;28;20127;-78
2021/10/07 02:39:35;;;;;;;6.22;3.63;;;;;;;;;;5052593;28;20044;-78
2021/10/07 02:42:01;;;;;;;5.65;3.90;;;;;;;;;;5070746;28;20032;-77
2021/10/07 02:44:26;;;;;;;5.00;3.63;;;;;;;;;;5070813;28;20042;-79
2021/10/07 02:46:52;;;;;;;5.30;4.15;;;;;;;;;;5071147;28;20409;-77
2021/10/07 02:49:17;;;;;;;4.32;3.05;;;;;;;;;;5070584;28;20067;-77
2021/10/07 02:51:43;;;;;;;5.30;2.90;;;;;;;;;;5072272;28;20040;-78
2021/10/07 02:54:08;;;;;;;7.70;2.83;;;;;;;;;;5074774;28;20133;-77
2021/10/07 02:56:33;;;;;;;5.57;4.32;;;;;;;;;;5074627;28;20413;-77
2021/10/07 02:58:59;;;;;;;6.18;3.55;;;;;;;;;;5074448;28;20032;-77
2021/10/07 03:01:26;;;;;;;5.85;3.85;;;;;;;;;;5074314;28;20504;-77
2021/10/07 03:03:51;;;;;;;5.50;5.00;;;;;;;;;;5074763;28;20033;-76
2021/10/07 03:06:17;;;;;;;5.15;3.97;;;;;;;;;;5056353;28;20504;-76
2021/10/07 03:08:42;;;;;;;4.00;3.60;;;;;;;;;;5056886;28;20481;-77
2021/10/07 03:11:08;;;;;;;4.60;3.78;;;;;;;;;;5075127;28;20040;-76
2021/10/07 03:13:33;;;;;;;3.03;2.65;;;;;;;;;;5074771;28;20089;-77
2021/10/07 03:15:58;;;;;;;6.15;4.60;;;;;;;;;;5074728;28;20036;-78
2021/10/07 03:18:24;;;;;;;7.78;5.53;;;;;;;;;;5056778;28;20443;-77
2021/10/07 03:20:49;;;;;;;5.05;3.92;;;;;;;;;;5056598;28;20135;-78
2021/10/07 03:23:14;;;;;;;7.47;3.67;;;;;;;;;;5074173;28;20029;-77
2021/10/07 03:25:40;;;;;;;4.32;3.67;;;;;;;;;;5074590;28;20063;-77
2021/10/07 03:28:05;;;;;;;4.15;3.47;;;;;;;;;;5074642;28;20103;-77
2021/10/07 03:30:32;;;;;;;6.55;4.35;;;;;;;;;;5074409;28;20132;-77
2021/10/07 03:33:04;;;;;;;5.63;3.47;;;;;;;;;;5039716;28;20036;-76
2021/10/07 03:35:30;;;;;;;6.70;4.80;;;;;;;;;;5074104;28;20037;-76
2021/10/07 03:37:55;;;;;;;5.25;4.53;;;;;;;;;;5074197;28;20089;-77
2021/10/07 03:40:21;;;;;;;4.13;3.15;;;;;;;;;;5074134;28;20132;-77
2021/10/07 03:42:46;;;;;;;5.63;3.30;;;;;;;;;;5073949;28;20040;-78
2021/10/07 03:45:11;;;;;;;5.63;3.17;;;;;;;;;;5073598;28;20060;-76
2021/10/07 03:47:37;;;;;;;5.10;4.53;;;;;;;;;;5073829;28;20378;-76
2021/10/07 03:50:03;;;;;;;5.50;4.30;;;;;;;;;;5055527;28;20484;-78
2021/10/07 03:52:29;;;;;;;6.95;4.47;;;;;;;;;;5073140;28;20045;-77
2021/10/07 03:54:54;;;;;;;5.97;3.47;;;;;;;;;;5073501;28;20040;-77
2021/10/07 03:57:23;;;;;;;5.38;4.05;;;;;;;;;;5073653;28;20498;-76
2021/10/07 03:59:49;;;;;;;4.38;3.70;;;;;;;;;;5055303;28;20032;-77
2021/10/07 04:02:14;;;;;;;9.98;3.95;;;;;;;;;;5072609;28;20040;-77
2021/10/07 04:04:39;;;;;;;3.92;3.28;;;;;;;;;;5073413;28;20058;-77
2021/10/07 04:07:05;;;;;;;5.53;4.50;;;;;;;;;;5073293;28;20480;-76
2021/10/07 04:09:30;;;;;;;8.50;4.05;;;;;;;;;;5073339;28;20047;-77
2021/10/07 04:11:55;;;;;;;6.10;3.63;;;;;;;;;;5073045;28;20119;-78
2021/10/07 04:14:21;;;;;;;6.28;4.20;;;;;;;;;;5073265;28;20040;-77
2021/10/07 04:16:46;;;;;;;6.00;3.45;;;;;;;;;;5054790;28;20509;-77
2021/10/07 04:19:11;;;;;;;6.13;3.83;;;;;;;;;;5054538;28;20052;-78
2021/10/07 04:21:39;;;;;;;6.78;5.97;;;;;;;;;;5072747;28;20033;-77
2021/10/07 04:24:05;;;;;;;7.57;3.13;;;;;;;;;;5055158;28;20028;-78
2021/10/07 04:26:32;;;;;;;4.43;3.22;;;;;;;;;;5072709;28;20047;-78
2021/10/07 04:28:58;;;;;;;3.67;3.38;;;;;;;;;;5054762;28;20093;-77
2021/10/07 04:31:23;;;;;;;5.78;3.88;;;;;;;;;;5072782;28;20489;-78
2021/10/07 04:33:50;;;;;;;4.32;3.75;;;;;;;;;;5072545;28;20044;-78
2021/10/07 04:36:16;;;;;;;4.13;3.53;;;;;;;;;;5072644;28;20037;-79
2021/10/07 04:38:41;;;;;;;8.00;3.30;;;;;;;;;;5054206;28;20024;-76
2021/10/07 04:41:06;;;;;;;8.15;3.10;;;;;;;;;;5072709;28;20098;-77
2021/10/07 04:43:32;;;;;;;6.88;4.45;;;;;;;;;;5072647;28;20029;-77
2021/10/07 04:45:57;;;;;;;6.18;4.35;;;;;;;;;;5072462;28;20068;-79
2021/10/07 04:48:23;;;;;;;7.53;4.20;;;;;;;;;;5072392;28;20432;-80
2021/10/07 04:50:48;;;;;;;4.78;3.38;;;;;;;;;;5072385;28;20035;-79
2021/10/07 04:53:15;;;;;;;3.92;2.92;;;;;;;;;;5072322;28;20903;-79
2021/10/07 04:55:41;;;;;;;5.47;4.05;;;;;;;;;;5072402;28;20033;-78
2021/10/07 04:58:06;;;;;;;6.45;3.80;;;;;;;;;;5072061;28;20043;-76
2021/10/07 05:00:32;;;;;;;7.07;4.25;;;;;;;;;;5072079;28;20117;-76
2021/10/07 05:02:58;;;;;;;5.60;4.70;;;;;;;;;;5071277;28;20043;-78
2021/10/07 05:05:23;;;;;;;6.65;4.53;;;;;;;;;;5071838;28;20028;-78
2021/10/07 05:07:49;;;;;;;12.95;5.55;;;;;;;;;;5071920;28;20123;-78
2021/10/07 05:10:14;;;;;;;6.07;5.47;;;;;;;;;;5071813;28;20393;-78
2021/10/07 05:12:40;;;;;;;4.60;3.75;;;;;;;;;;5071662;28;20401;-76
2021/10/07 05:15:08;;;;;;;7.68;4.65;;;;;;;;;;5070964;28;20040;-70
2021/10/07 05:17:34;;;;;;;7.68;6.57;;;;;;;;;;5053080;28;20555;-71
2021/10/07 05:19:59;;;;;;;7.22;4.53;;;;;;;;;;5071103;28;20044;-69
2021/10/07 05:22:25;;;;;;;6.00;4.85;;;;;;;;;;5071297;28;20090;-70
2021/10/07 05:24:50;;;;;;;5.22;4.13;;;;;;;;;;5071718;28;20166;-68
2021/10/07 05:27:16;;;;;;;4.80;3.40;;;;;;;;;;5071179;28;20032;-70
2021/10/07 05:29:41;;;;;;;6.00;4.28;;;;;;;;;;5071228;28;20123;-69
2021/10/07 05:32:07;;;;;;;4.88;4.45;;;;;;;;;;5071529;28;20041;-80
2021/10/07 05:34:33;;;;;;;6.38;4.07;;;;;;;;;;5071074;28;20033;-78
2021/10/07 05:36:58;;;;;;;5.60;4.15;;;;;;;;;;5071405;28;20035;-78
2021/10/07 05:39:23;;;;;;;5.63;5.05;;;;;;;;;;5071828;28;20036;-80
2021/10/07 05:41:49;;;;;;;5.75;4.13;;;;;;;;;;5071251;28;20040;-80
2021/10/07 05:44:14;;;;;;;4.45;4.05;;;;;;;;;;5071465;28;20103;-76
2021/10/07 05:46:40;;;;;;;6.47;3.58;;;;;;;;;;5071209;28;20481;-78
2021/10/07 05:49:07;;;;;;;6.22;5.38;;;;;;;;;;5071232;28;20036;-76
2021/10/07 05:51:33;;;;;;;6.05;4.28;;;;;;;;;;5071080;28;20043;-78
2021/10/07 05:54:00;;;;;;;5.85;5.25;;;;;;;;;;5071423;28;20032;-79
2021/10/07 05:56:25;;;;;;;4.13;2.92;;;;;;;;;;5071233;28;20450;-76
2021/10/07 05:58:51;;;;;;;7.20;4.65;;;;;;;;;;5053059;28;20036;-79
2021/10/07 06:01:17;;;;;;;7.55;4.90;;;;;;;;;;5070948;28;20040;-77
2021/10/07 06:03:42;;;;;;;7.13;3.83;;;;;;;;;;5053043;28;20524;-75
2021/10/07 06:06:08;;;;;;;5.22;3.33;;;;;;;;;;5071283;28;20040;-75
2021/10/07 06:08:33;;;;;;;4.50;3.40;;;;;;;;;;5070644;28;20104;-77
2021/10/07 06:10:58;;;;;;;5.60;4.00;;;;;;;;;;5071305;28;20440;-77
2021/10/07 06:13:24;;;;;;;8.18;5.50;;;;;;;;;;5071049;28;20130;-78
2021/10/07 06:15:49;;;;;;;3.53;3.20;;;;;;;;;;5071232;28;20036;-77
2021/10/07 06:18:16;;;;;;;4.50;4.07;;;;;;;;;;5070964;28;20033;-79
2021/10/07 06:20:41;;;;;;;4.95;4.07;;;;;;;;;;5070934;28;20036;-76
2021/10/07 06:23:08;;;;;;;4.53;3.25;;;;;;;;;;5070844;28;20036;-75
2021/10/07 06:25:36;;;;;;;7.40;6.13;;;;;;;;;;5054515;28;20028;-78
2021/10/07 06:28:03;;;;;;;7.43;4.00;;;;;;;;;;5075297;28;20040;-78
2021/10/07 06:30:29;;;;;;;5.28;4.35;;;;;;;;;;5075285;28;20040;-78
2021/10/07 06:32:57;;;;;;;4.88;4.43;;;;;;;;;;5075496;28;20389;-79
2021/10/07 06:35:22;;;;;;;6.65;4.28;;;;;;;;;;5056974;28;20037;-78
2021/10/07 06:37:49;;;;;;;5.45;3.67;;;;;;;;;;5074714;28;20520;-79
2021/10/07 06:40:15;;;;;;;7.07;4.00;;;;;;;;;;5075356;28;20036;-78
2021/10/07 06:42:41;;;;;;;4.70;3.75;;;;;;;;;;5074983;28;20028;-79
2021/10/07 06:45:07;;;;;;;5.05;3.67;;;;;;;;;;5057441;28;20051;-80
2021/10/07 06:47:33;;;;;;;6.72;4.35;;;;;;;;;;5075155;28;20036;-78
2021/10/07 06:50:00;;;;;;;5.15;3.63;;;;;;;;;;5069671;28;20042;-76
2021/10/07 06:52:25;;;;;;;6.68;4.47;;;;;;;;;;5096181;28;20108;-79
2021/10/07 06:54:52;;;;;;;4.00;3.22;;;;;;;;;;5097297;28;20051;-78
2021/10/07 06:57:17;;;;;;;8.38;6.03;;;;;;;;;;5083255;28;20519;-76
2021/10/07 06:59:43;;;;;;;4.57;3.47;;;;;;;;;;5058103;28;20028;-78
2021/10/07 07:02:08;;;;;;;7.80;4.18;;;;;;;;;;5076629;28;20033;-77
2021/10/07 07:04:35;;;;;;;5.38;4.00;;;;;;;;;;5075462;28;20513;-76
2021/10/07 07:07:00;;;;;;;6.40;4.15;;;;;;;;;;5040548;28;20071;-77
2021/10/07 07:09:26;;;;;;;6.35;5.75;;;;;;;;;;5074634;28;20584;-78
2021/10/07 07:11:51;;;;;;;7.03;4.43;;;;;;;;;;5074723;28;20086;-78
2021/10/07 07:14:17;;;;;;;6.22;3.83;;;;;;;;;;5074763;28;20044;-78
2021/10/07 07:16:43;;;;;;;5.53;3.90;;;;;;;;;;5074676;28;20481;-76
2021/10/07 07:19:09;;;;;;;4.53;3.53;;;;;;;;;;5074306;28;20109;-79
2021/10/07 07:21:34;;;;;;;4.30;3.40;;;;;;;;;;5074594;28;20033;-77
2021/10/07 07:24:02;;;;;;;9.15;3.83;;;;;;;;;;5074044;28;20043;-78
2021/10/07 07:26:28;;;;;;;3.97;3.38;;;;;;;;;;5056197;28;20035;-78
2021/10/07 07:28:55;;;;;;;6.93;3.88;;;;;;;;;;5074379;28;20037;-79
2021/10/07 07:31:22;;;;;;;6.30;3.88;;;;;;;;;;5074497;28;20489;-78
2021/10/07 07:33:47;;;;;;;7.20;3.47;;;;;;;;;;5063447;28;20028;-78
2021/10/07 07:36:14;;;;;;;7.38;3.22;;;;;;;;;;5053809;28;20059;-79
2021/10/07 07:38:43;;;;;;;5.20;3.78;;;;;;;;;;5053843;28;20029;-79
2021/10/07 07:41:10;;;;;;;5.07;3.58;;;;;;;;;;5074888;28;20063;-81
2021/10/07 07:43:35;;;;;;;7.05;3.90;;;;;;;;;;5056757;28;20036;-79
2021/10/07 07:46:01;;;;;;;7.70;3.60;;;;;;;;;;5056707;28;20044;-80
2021/10/07 07:48:26;;;;;;;5.13;3.50;;;;;;;;;;5074599;28;20028;-78
2021/10/07 07:50:52;;;;;;;4.95;3.33;;;;;;;;;;5056854;28;20080;-81
2021/10/07 07:53:17;;;;;;;4.90;3.30;;;;;;;;;;5056030;28;20056;-79
2021/10/07 07:55:44;;;;;;;8.93;3.70;;;;;;;;;;5074670;28;20584;-79
2021/10/07 07:58:11;;;;;;;4.13;3.17;;;;;;;;;;5074547;28;20513;-79
2021/10/07 08:00:37;;;;;;;6.82;3.60;;;;;;;;;;5070333;28;20489;-79
2021/10/07 08:03:03;;;;;;;5.97;3.33;;;;;;;;;;5073899;28;20033;-80
2021/10/07 08:05:28;;;;;;;3.72;3.15;;;;;;;;;;5074349;28;20043;-79
2021/10/07 08:07:54;;;;;;;7.18;3.00;;;;;;;;;;5074119;28;20440;-76
2021/10/07 08:10:20;;;;;;;4.30;3.22;;;;;;;;;;5073292;28;20044;-77
2021/10/07 08:12:45;;;;;;;6.05;3.45;;;;;;;;;;5054899;28;20036;-78
2021/10/07 08:15:11;;;;;;;4.55;3.10;;;;;;;;;;5072758;28;20036;-79
2021/10/07 08:17:38;;;;;;;3.75;3.30;;;;;;;;;;5073067;28;20428;-79
2021/10/07 08:20:06;;;;;;;7.80;4.00;;;;;;;;;;5072655;28;20036;-78
2021/10/07 08:22:33;;;;;;;3.45;2.95;;;;;;;;;;5054311;28;20033;-78
2021/10/07 08:24:58;;;;;;;5.00;3.47;;;;;;;;;;5055302;28;20044;-79
2021/10/07 08:27:26;;;;;;;5.15;3.80;;;;;;;;;;5073413;28;20036;-79
2021/10/07 08:29:52;;;;;;;4.75;4.13;;;;;;;;;;5073644;28;20524;-79
2021/10/07 08:32:20;;;;;;;4.72;3.50;;;;;;;;;;5074523;28;20497;-77
2021/10/07 08:34:45;;;;;;;7.65;3.20;;;;;;;;;;5070379;28;20028;-78
2021/10/07 08:37:11;;;;;;;4.32;2.92;;;;;;;;;;5074803;28;20477;-81
2021/10/07 08:39:40;;;;;;;4.85;3.72;;;;;;;;;;5074556;28;20106;-80
2021/10/07 08:42:06;;;;;;;5.80;3.78;;;;;;;;;;5056408;28;20037;-81
2021/10/07 08:44:32;;;;;;;5.93;3.50;;;;;;;;;;5073863;28;20033;-81
2021/10/07 08:46:58;;;;;;;6.10;3.47;;;;;;;;;;5073041;28;20060;-79
2021/10/07 08:49:26;;;;;;;6.50;2.95;;;;;;;;;;5072109;28;20202;-79
2021/10/07 08:51:52;;;;;;;7.95;3.78;;;;;;;;;;5073346;28;20077;-79
2021/10/07 08:54:20;;;;;;;4.82;3.45;;;;;;;;;;5072778;28;20052;-80
2021/10/07 08:56:47;;;;;;;5.47;3.50;;;;;;;;;;5073859;28;20029;-79
2021/10/07 08:59:14;;;;;;;8.38;3.88;;;;;;;;;;5075125;28;20059;-79
2021/10/07 09:01:57;;;;;;;6.68;3.13;;;;;;;;;;5075201;28;20039;-79
2021/10/07 09:04:29;;;;;;;5.72;3.88;;;;;;;;;;5075403;28;20032;-79
2021/10/07 09:07:07;;;;;;;4.05;2.88;;;;;;;;;;5074602;28;20036;-80
2021/10/07 09:09:35;;;;;;;5.57;4.18;;;;;;;;;;5055690;28;20082;-78
2021/10/07 09:12:04;;;;;;;4.75;3.53;;;;;;;;;;5055495;28;20074;-79
2021/10/07 09:14:32;;;;;;;5.50;3.70;;;;;;;;;;5055387;28;20043;-80
2021/10/07 09:16:59;;;;;;;7.03;3.38;;;;;;;;;;5056725;28;20109;-78
2021/10/07 09:19:31;;;;;;;5.10;2.75;;;;;;;;;;5074039;28;20036;-80
2021/10/07 09:22:12;;;;;;;3.58;3.00;;;;;;;;;;5073654;28;20032;-80
2021/10/07 09:24:41;;;;;;;5.40;3.53;;;;;;;;;;5074219;28;20485;-80
2021/10/07 09:27:24;;;;;;;9.40;3.03;;;;;;;;;;5034698;28;20032;-80
2021/10/07 09:29:55;;;;;;;8.90;3.47;;;;;;;;;;5080687;28;20062;-80
2021/10/07 09:32:30;;;;;;;6.25;3.35;;;;;;;;;;5075469;28;20039;-80
2021/10/07 09:35:01;;;;;;;7.10;3.08;;;;;;;;;;5058053;28;20036;-80
2021/10/07 09:37:29;;;;;;;7.57;4.10;;;;;;;;;;5079884;28;20410;-81
2021/10/07 09:39:59;;;;;;;5.70;3.53;;;;;;;;;;5061067;28;20094;-81
2021/10/07 09:42:30;;;;;;;10.05;3.65;;;;;;;;;;5057745;28;20036;-79
2021/10/07 09:45:02;;;;;;;3.88;3.42;;;;;;;;;;5056660;28;20078;-80
2021/10/07 09:47:34;;;;;;;8.75;3.92;;;;;;;;;;5073793;28;20070;-79
2021/10/07 09:50:10;;;;;;;4.47;3.80;;;;;;;;;;5038046;28;20048;-80
2021/10/07 09:52:40;;;;;;;3.92;3.25;;;;;;;;;;5073316;28;20516;-79
2021/10/07 09:55:17;;;;;;;7.78;3.50;;;;;;;;;;5072273;28;20040;-79
2021/10/07 09:58:17;;;;;;;5.10;3.67;;;;;;;;;;5072392;28;20044;-82
2021/10/07 10:00:46;;;;;;;5.00;3.10;;;;;;;;;;5071138;28;20043;-79
2021/10/07 10:03:14;;;;;;;8.02;4.20;;;;;;;;;;5054778;28;20048;-80
2021/10/07 10:05:41;;;;;;;5.20;3.13;;;;;;;;;;5072375;28;20032;-80
2021/10/07 10:08:10;;;;;;;7.13;3.38;;;;;;;;;;5072142;28;20044;-79
2021/10/07 10:10:39;;;;;;;6.20;3.53;;;;;;;;;;5055420;28;20056;-79
2021/10/07 10:13:06;;;;;;;6.15;3.30;;;;;;;;;;5056203;28;20494;-79
2021/10/07 10:15:37;;;;;;;9.38;3.92;;;;;;;;;;5054766;28;20090;-80
2021/10/07 10:18:15;;;;;;;6.53;3.35;;;;;;;;;;5072120;28;20039;-81
2021/10/07 10:20:46;;;;;;;7.03;4.03;;;;;;;;;;5053612;28;20131;-80
2021/10/07 10:23:15;;;;;;;3.13;2.83;;;;;;;;;;5071127;28;20086;-78
2021/10/07 10:26:00;;;;;;;7.68;3.05;;;;;;;;;;5071153;28;20036;-79
2021/10/07 10:28:35;;;;;;;4.78;2.70;;;;;;;;;;5071295;28;20036;-79
2021/10/07 10:31:13;;;;;;;4.22;3.28;;;;;;;;;;5071354;28;20024;-80
2021/10/07 10:33:43;;;;;;;3.85;3.30;;;;;;;;;;5071135;28;20064;-79
2021/10/07 10:36:33;;;;;;;6.15;3.65;;;;;;;;;;5071083;28;20520;-77
2021/10/07 10:39:09;;;;;;;6.00;3.17;;;;;;;;;;5071326;28;20156;-79
2021/10/07 10:42:04;;;;;;;4.43;3.22;;;;;;;;;;5036832;28;20139;-80
2021/10/07 10:44:46;;;;;;;5.32;3.50;;;;;;;;;;5053015;28;20572;-81
2021/10/07 10:47:11;;;;;;;3.65;2.67;;;;;;;;;;5053482;28;20493;-84
2021/10/07 10:49:46;;;;;;;5.25;2.97;;;;;;;;;;5072122;28;20043;-84
2021/10/07 10:52:28;;;;;;;3.72;2.83;;;;;;;;;;5064416;22;20059;-82
2021/10/07 10:55:17;;;;;;;6.18;3.40;;;;;;;;;;5073927;28;20130;-81
2021/10/07 10:57:51;;;;;;;4.50;2.83;;;;;;;;;;5091699;28;20120;-83
2021/10/07 11:00:28;;;;;;;4.70;2.72;;;;;;;;;;5056480;28;20062;-76
2021/10/07 11:03:06;;;;;;;4.35;2.50;;;;;;;;;;5063888;28;20520;-77
2021/10/07 11:05:31;;;;;;;6.40;2.80;;;;;;;;;;5052496;28;20036;-74
2021/10/07 11:08:09;;;;;;;4.10;2.72;;;;;;;;;;5070529;28;20085;-76
2021/10/07 11:10:39;;;;;;;3.88;3.17;;;;;;;;;;5070433;28;20086;-75
2021/10/07 11:13:11;;;;;;;3.42;3.13;;;;;;;;;;5072532;28;20382;-76
2021/10/07 11:15:37;;;;;;;3.75;2.80;;;;;;;;;;5056118;28;20029;-74
2021/10/07 11:18:02;;;;;;;5.22;3.67;;;;;;;;;;5073703;28;20085;-76
2021/10/07 11:20:30;;;;;;;10.55;3.78;;;;;;;;;;5074284;28;20496;-77
2021/10/07 11:23:09;;;;;;;6.20;3.38;;;;;;;;;;5073936;28;20047;-75
2021/10/07 11:25:41;;;;;;;4.93;3.17;;;;;;;;;;5055743;28;20521;-79
2021/10/07 11:28:10;;;;;;;9.45;3.42;;;;;;;;;;5055611;28;20039;-79
2021/10/07 11:30:38;;;;;;;4.30;2.42;;;;;;;;;;5073471;28;20037;-79
2021/10/07 11:33:05;;;;;;;4.20;3.72;;;;;;;;;;5073655;28;20379;-77
2021/10/07 11:35:33;;;;;;;3.88;2.47;;;;;;;;;;5055992;28;20119;-78
2021/10/07 11:38:03;;;;;;;4.20;2.92;;;;;;;;;;5073894;28;20062;-79
2021/10/07 11:40:28;;;;;;;;;;;;;;;;;;5074221;28;20127;-77
2021/10/07 11:42:56;;;;;;;4.65;2.90;;;;;;;;;;5073706;28;20018;-77
2021/10/07 11:45:23;;;;;;;5.53;2.80;;;;;;;;;;5056220;28;20037;-78
2021/10/07 11:47:50;;;;;;;5.15;3.05;;;;;;;;;;5074140;28;20037;-76
2021/10/07 11:50:17;;;;;;;4.10;2.75;;;;;;;;;;5055912;28;20047;-77
2021/10/07 11:52:43;;;;;;;4.78;3.25;;;;;;;;;;5073427;28;20051;-76
2021/10/07 11:55:08;;;;;;;3.80;2.97;;;;;;;;;;5073736;28;20036;-77
2021/10/07 11:57:34;;;;;;;5.70;3.22;;;;;;;;;;5073546;28;20111;-77
2021/10/07 11:59:59;;;;;;;3.67;3.22;;;;;;;;;;5073471;28;20392;-77
2021/10/07 12:02:25;;;;;;;3.08;2.63;;;;;;;;;;5073738;28;20062;-75
2021/10/07 12:04:50;;;;;;;4.53;3.67;;;;;;;;;;5073904;28;20401;-77
2021/10/07 12:07:15;;;;;;;3.50;2.85;;;;;;;;;;5077174;28;20028;-78
2021/10/07 12:09:42;;;;;;;7.43;3.35;;;;;;;;;;5081346;28;20521;-78
2021/10/07 12:12:07;;;;;;;7.07;4.05;;;;;;;;;;5062410;28;20358;-79
2021/10/07 12:14:33;;;;;;;5.00;3.25;;;;;;;;;;5078376;28;20135;-77
2021/10/07 12:16:58;;;;;;;3.33;2.67;;;;;;;;;;5073761;28;20039;-77
2021/10/07 12:19:28;;;;;;;3.92;3.03;;;;;;;;;;5056089;28;20575;-79
2021/10/07 12:21:56;;;;;;;4.65;2.65;;;;;;;;;;5054983;28;20043;-79
2021/10/07 12:24:24;;;;;;;3.78;3.17;;;;;;;;;;5072763;28;20052;-78
2021/10/07 12:26:51;;;;;;;4.93;2.85;;;;;;;;;;5073108;28;20115;-77
2021/10/07 12:29:21;;;;;;;9.43;3.75;;;;;;;;;;5073187;28;20036;-78
2021/10/07 12:31:57;;;;;;;;;;;;;;;;;;5073484;28;20028;-78
2021/10/07 12:34:32;;;;;;;5.00;2.72;;;;;;;;;;5055322;28;19917;-80
2021/10/07 12:36:59;;;;;;;7.57;3.92;;;;;;;;;;5072953;28;20043;-77
2021/10/07 12:39:26;;;;;;;4.35;2.60;;;;;;;;;;5072787;28;20062;-79
2021/10/07 12:41:55;;;;;;;6.28;3.65;;;;;;;;;;5073118;28;20120;-78
2021/10/07 12:44:23;;;;;;;7.10;3.20;;;;;;;;;;5072952;28;20382;-77
2021/10/07 12:46:52;;;;;;;5.85;2.95;;;;;;;;;;5055077;28;20036;-78
2021/10/07 12:49:40;;;;;;;8.73;3.55;;;;;;;;;;5055102;28;20040;-79
2021/10/07 12:52:29;;;;;;;7.75;3.28;;;;;;;;;;5049677;28;20064;-79
2021/10/07 12:55:08;;;;;;;4.93;3.33;;;;;;;;;;5054870;28;20558;-78
2021/10/07 12:57:48;;;;;;;8.43;3.63;;;;;;;;;;5072510;28;20033;-78
2021/10/07 13:00:33;;;;;;;7.05;4.07;;;;;;;;;;5054209;28;20412;-79
2021/10/07 13:03:00;;;;;;;9.43;4.70;;;;;;;;;;5072166;28;20040;-78
2021/10/07 13:05:32;;;;;;;5.22;3.30;;;;;;;;;;5071910;28;20043;-79
2021/10/07 13:08:08;;;;;;;19.58;3.60;;;;;;;;;;5072174;28;20034;-77
2021/10/07 13:10:37;;;;;;;5.35;3.20;;;;;;;;;;5072187;28;20490;-76
2021/10/07 13:13:03;;;;;;;3.80;2.97;;;;;;;;;;5037956;28;20064;-78
2021/10/07 13:15:28;;;;;;;4.68;4.20;;;;;;;;;;5071850;28;20447;-79
2021/10/07 13:17:54;;;;;;;4.20;3.13;;;;;;;;;;5072070;28;20033;-78
2021/10/07 13:20:20;;;;;;;6.53;3.38;;;;;;;;;;5072232;28;20043;-78
2021/10/07 13:22:47;;;;;;;5.40;3.70;;;;;;;;;;5071808;28;20117;-78
2021/10/07 13:25:13;;;;;;;4.30;3.38;;;;;;;;;;5071900;28;20036;-79
2021/10/07 13:27:46;;;;;;;5.85;4.05;;;;;;;;;;5072053;28;20090;-79
2021/10/07 13:30:15;;;;;;;6.00;3.53;;;;;;;;;;5054104;28;20044;-78
2021/10/07 13:32:50;;;;;;;7.55;4.25;;;;;;;;;;5054054;28;20437;-78
2021/10/07 13:35:16;;;;;;;6.85;3.65;;;;;;;;;;5053336;28;20033;-80
2021/10/07 13:37:47;;;;;;;6.05;3.53;;;;;;;;;;5071423;28;20585;-78
2021/10/07 13:40:13;;;;;;;6.10;3.72;;;;;;;;;;5071348;28;20191;-77
2021/10/07 13:42:38;;;;;;;4.78;3.83;;;;;;;;;;5071688;28;20136;-78
2021/10/07 13:45:04;;;;;;;4.38;3.97;;;;;;;;;;5071895;28;20412;-79
2021/10/07 13:47:29;;;;;;;6.82;3.92;;;;;;;;;;5072091;28;20509;-80
2021/10/07 13:49:55;;;;;;;7.72;3.35;;;;;;;;;;5053597;28;20043;-81
2021/10/07 13:52:25;;;;;;;4.82;3.83;;;;;;;;;;5071529;28;20129;-78
2021/10/07 13:54:51;;;;;;;7.93;4.00;;;;;;;;;;5053762;28;20119;-78
2021/10/07 13:57:16;;;;;;;8.77;4.50;;;;;;;;;;5071500;28;20119;-78
2021/10/07 13:59:42;;;;;;;7.40;4.10;;;;;;;;;;5071439;28;20036;-78
2021/10/07 14:02:07;;;;;;;10.63;4.55;;;;;;;;;;5071590;28;20486;-78
2021/10/07 14:04:32;;;;;;;7.68;4.57;;;;;;;;;;5071243;28;20039;-77
2021/10/07 14:06:58;;;;;;;6.30;4.18;;;;;;;;;;5071403;28;20033;-77
2021/10/07 14:09:23;;;;;;;10.30;3.88;;;;;;;;;;5053230;28;20039;-78
2021/10/07 14:11:51;;;;;;;6.60;3.97;;;;;;;;;;5071278;28;20039;-77
2021/10/07 14:14:17;;;;;;;10.85;5.43;;;;;;;;;;5070852;28;20416;-77
2021/10/07 14:16:42;;;;;;;6.45;3.80;;;;;;;;;;5053127;28;20127;-77
2021/10/07 14:19:10;;;;;;;7.35;4.07;;;;;;;;;;5071120;28;20033;-77
2021/10/07 14:21:37;;;;;;;6.20;4.85;;;;;;;;;;5053033;28;20035;-78
2021/10/07 14:24:02;;;;;;;7.18;4.05;;;;;;;;;;5071170;28;20033;-76
2021/10/07 14:26:28;;;;;;;6.07;4.53;;;;;;;;;;5071288;28;20417;-77
2021/10/07 14:28:53;;;;;;;8.23;5.80;;;;;;;;;;5071123;28;20402;-78
2021/10/07 14:31:19;;;;;;;6.05;3.97;;;;;;;;;;5070984;28;20033;-78
2021/10/07 14:33:45;;;;;;;6.55;4.50;;;;;;;;;;5070939;28;20040;-77
2021/10/07 14:36:10;;;;;;;9.57;4.07;;;;;;;;;;5071198;28;20036;-78
2021/10/07 14:38:36;;;;;;;11.15;5.63;;;;;;;;;;5070944;28;20406;-78
2021/10/07 14:41:01;;;;;;;5.95;3.65;;;;;;;;;;5070607;28;20044;-78
2021/10/07 14:43:27;;;;;;;6.13;4.45;;;;;;;;;;5071013;28;20036;-79
2021/10/07 14:45:52;;;;;;;7.47;5.03;;;;;;;;;;5071548;28;20040;-78
2021/10/07 14:48:18;;;;;;;8.98;5.15;;;;;;;;;;5075137;28;20031;-78
2021/10/07 14:50:46;;;;;;;10.00;4.72;;;;;;;;;;5057344;28;20036;-77
2021/10/07 14:53:11;;;;;;;7.53;5.65;;;;;;;;;;5074606;28;20100;-77